createdAt,value
2018-05-21T00:00:58.844Z,42.86
2018-05-21T00:03:28.272Z,42.38
2018-05-21T00:05:56.628Z,42.72
2018-05-21T00:08:26.371Z,42.27
2018-05-21T00:10:55.730Z,42.68
2018-05-21T00:13:24.064Z,42.01
2018-05-21T00:15:52.729Z,41.79
2018-05-21T00:18:22.118Z,42.23
2018-05-21T00:20:50.474Z,42.44
2018-05-21T00:23:19.029Z,42.76
2018-05-21T00:25:48.224Z,43.26
2018-05-21T00:28:16.600Z,42.64
2018-05-21T00:30:44.959Z,43.18
2018-05-21T00:33:13.373Z,43.04
2018-05-21T00:35:42.976Z,42.94
2018-05-21T00:38:11.787Z,43.27
2018-05-21T00:40:40.843Z,43.56
2018-05-21T00:43:09.997Z,43.46
2018-05-21T00:45:38.361Z,43.86
2018-05-21T00:48:06.793Z,43.65
2018-05-21T00:50:35.445Z,43.85
2018-05-21T00:53:03.796Z,43.82
2018-05-21T00:55:38.373Z,43.66
2018-05-21T00:58:07.458Z,44.32
2018-05-21T01:00:36.446Z,44.31
2018-05-21T01:03:04.809Z,44.04
2018-05-21T01:05:33.145Z,44.78
2018-05-21T01:08:01.530Z,44.67
2018-05-21T01:10:29.862Z,44.51
2018-05-21T01:12:58.278Z,44.61
2018-05-21T01:15:26.608Z,44.84
2018-05-21T01:17:55.777Z,44.66
2018-05-21T01:20:24.718Z,45.04
2018-05-21T01:22:53.141Z,45.30
2018-05-21T01:25:22.341Z,45.49
2018-05-21T01:27:50.785Z,44.98
2018-05-21T01:30:19.161Z,45.12
2018-05-21T01:32:48.265Z,44.55
2018-05-21T01:35:16.601Z,45.00
2018-05-21T01:37:45.394Z,45.35
2018-05-21T01:40:13.724Z,45.37
2018-05-21T01:42:42.089Z,45.76
2018-05-21T01:45:10.436Z,45.76
2018-05-21T01:47:39.565Z,46.53
2018-05-21T01:50:07.906Z,46.46
2018-05-21T01:52:36.256Z,46.64
2018-05-21T01:55:05.301Z,46.68
2018-05-21T01:57:33.652Z,47.15
2018-05-21T02:00:01.993Z,47.47
2018-05-21T02:02:30.375Z,47.15
2018-05-21T02:04:58.725Z,47.71
2018-05-21T02:07:27.496Z,47.19
2018-05-21T02:09:56.957Z,47.12
2018-05-21T02:12:26.214Z,48.07
2018-05-21T02:14:54.561Z,48.30
2018-05-21T02:17:22.947Z,48.10
2018-05-21T02:19:53.050Z,48.31
2018-05-21T02:22:21.389Z,48.29
2018-05-21T02:24:50.631Z,48.38
2018-05-21T02:27:19.309Z,48.31
2018-05-21T02:29:48.310Z,49.09
2018-05-21T02:32:17.621Z,49.63
2018-05-21T02:34:46.352Z,49.46
2018-05-21T02:37:15.101Z,49.98
2018-05-21T02:39:43.597Z,50.11
2018-05-21T02:42:12.562Z,49.84
2018-05-21T02:44:41.681Z,49.74
2018-05-21T02:47:10.333Z,50.06
2018-05-21T02:49:38.913Z,50.57
2018-05-21T02:52:07.370Z,50.43
2018-05-21T02:54:35.777Z,50.38
2018-05-21T02:57:04.123Z,50.51
2018-05-21T02:59:32.486Z,50.80
2018-05-21T03:02:00.855Z,51.09
2018-05-21T03:04:29.946Z,50.83
2018-05-21T03:06:58.457Z,50.77
2018-05-21T03:09:28.258Z,50.84
2018-05-21T03:11:57.797Z,51.64
2018-05-21T03:14:26.861Z,51.60
2018-05-21T03:16:56.505Z,52.04
2018-05-21T03:19:24.857Z,52.24
2018-05-21T03:21:54.125Z,52.32
2018-05-21T03:24:22.475Z,52.22
2018-05-21T03:26:50.846Z,52.56
2018-05-21T03:29:19.200Z,52.90
2018-05-21T03:31:48.473Z,52.95
2018-05-21T03:34:16.805Z,53.09
2018-05-21T03:36:45.169Z,53.37
2018-05-21T03:39:13.572Z,53.39
2018-05-21T03:41:41.922Z,53.84
2018-05-21T03:44:10.301Z,53.58
2018-05-21T03:46:39.300Z,54.32
2018-05-21T03:49:07.639Z,53.96
2018-05-21T03:51:36.001Z,54.11
2018-05-21T03:54:04.389Z,54.83
2018-05-21T03:56:32.738Z,54.66
2018-05-21T03:59:12.747Z,55.01
2018-05-21T04:01:53.425Z,54.92
2018-05-21T04:04:22.412Z,54.20
2018-05-21T04:06:50.758Z,55.10
2018-05-21T04:09:19.102Z,54.71
2018-05-21T04:11:47.564Z,55.16
2018-05-21T04:14:17.439Z,54.85
2018-05-21T04:16:45.788Z,55.09
2018-05-21T04:19:14.168Z,54.68
2018-05-21T04:21:42.531Z,54.97
2018-05-21T04:24:11.242Z,55.21
2018-05-21T04:26:39.600Z,55.30
2018-05-21T04:29:09.082Z,54.87
2018-05-21T04:31:37.966Z,55.15
2018-05-21T04:34:08.338Z,55.59
2018-05-21T04:36:36.713Z,55.68
2018-05-21T04:39:05.821Z,56.13
2018-05-21T04:41:34.237Z,55.33
2018-05-21T04:44:02.585Z,55.19
2018-05-21T04:46:31.679Z,55.73
2018-05-21T04:49:00.028Z,55.55
2018-05-21T04:51:28.891Z,55.29
2018-05-21T04:53:57.332Z,55.54
2018-05-21T04:56:25.656Z,55.54
2018-05-21T04:58:55.349Z,55.29
2018-05-21T05:01:23.680Z,55.26
2018-05-21T05:03:52.035Z,55.89
2018-05-21T05:06:20.401Z,55.37
2018-05-21T05:08:48.755Z,56.16
2018-05-21T05:11:17.107Z,56.47
2018-05-21T05:13:45.997Z,55.09
2018-05-21T05:16:14.319Z,55.29
2018-05-21T05:18:42.725Z,54.92
2018-05-21T05:21:12.350Z,54.92
2018-05-21T05:23:40.669Z,55.61
2018-05-21T05:26:10.903Z,55.07
2018-05-21T05:28:39.256Z,54.60
2018-05-21T05:31:08.929Z,54.55
2018-05-21T05:33:37.616Z,54.43
2018-05-21T05:36:07.550Z,54.77
2018-05-21T05:38:36.155Z,54.27
2018-05-21T05:41:05.267Z,54.01
2018-05-21T05:43:33.937Z,54.00
2018-05-21T05:46:02.511Z,54.61
2018-05-21T05:48:31.211Z,54.18
2018-05-21T05:50:59.789Z,53.55
2018-05-21T05:53:28.142Z,53.87
2018-05-21T05:55:56.483Z,54.13
2018-05-21T05:58:24.852Z,53.34
2018-05-21T06:00:53.221Z,53.31
2018-05-21T06:03:22.043Z,53.52
2018-05-21T06:05:51.274Z,53.32
2018-05-21T06:08:19.667Z,53.22
2018-05-21T06:10:49.625Z,52.79
2018-05-21T06:13:17.984Z,52.78
2018-05-21T06:15:46.359Z,52.78
2018-05-21T06:18:14.681Z,52.73
2018-05-21T06:20:43.653Z,52.02
2018-05-21T06:23:13.444Z,52.35
2018-05-21T06:25:42.069Z,52.41
2018-05-21T06:28:11.023Z,52.89
2018-05-21T06:30:39.389Z,52.23
2018-05-21T06:33:07.719Z,52.80
2018-05-21T06:35:37.148Z,52.35
2018-05-21T06:38:06.245Z,52.04
2018-05-21T06:40:34.596Z,52.43
2018-05-21T06:43:02.968Z,51.86
2018-05-21T06:45:31.337Z,51.71
2018-05-21T06:47:59.897Z,52.01
2018-05-21T06:50:28.668Z,51.45
2018-05-21T06:52:56.988Z,51.99
2018-05-21T06:55:26.261Z,51.94
2018-05-21T06:57:56.686Z,52.12
2018-05-21T07:00:26.063Z,51.91
2018-05-21T07:02:54.385Z,51.17
2018-05-21T07:05:23.175Z,51.87
2018-05-21T07:07:53.390Z,51.90
2018-05-21T07:10:21.720Z,50.86
2018-05-21T07:12:50.217Z,50.71
2018-05-21T07:15:18.862Z,50.59
2018-05-21T07:17:48.925Z,50.88
2018-05-21T07:20:17.610Z,50.94
2018-05-21T07:22:47.193Z,50.95
2018-05-21T07:25:17.403Z,50.87
2018-05-21T07:27:45.726Z,50.70
2018-05-21T07:30:15.198Z,49.76
2018-05-21T07:32:43.522Z,49.93
2018-05-21T07:35:11.928Z,50.33
2018-05-21T07:37:41.070Z,49.64
2018-05-21T07:40:09.434Z,50.24
2018-05-21T07:42:38.534Z,49.20
2018-05-21T07:45:07.222Z,48.96
2018-05-21T07:47:35.597Z,48.50
2018-05-21T07:50:03.930Z,48.09
2018-05-21T07:52:32.292Z,48.62
2018-05-21T07:55:00.622Z,48.26
2018-05-21T07:57:29.313Z,47.66
2018-05-21T07:59:58.380Z,48.38
2018-05-21T08:02:26.740Z,48.50
2018-05-21T08:04:55.082Z,47.18
2018-05-21T08:07:23.440Z,46.07
2018-05-21T08:09:52.540Z,46.86
2018-05-21T08:12:20.901Z,45.14
2018-05-21T08:14:49.368Z,46.04
2018-05-21T08:17:17.820Z,44.95
2018-05-21T08:19:46.191Z,44.38
2018-05-21T08:22:14.648Z,44.46
2018-05-21T08:24:43.905Z,44.76
2018-05-21T08:27:12.305Z,44.97
2018-05-21T08:29:41.336Z,43.34
2018-05-21T08:32:10.667Z,43.46
2018-05-21T08:34:39.059Z,44.97
2018-05-21T08:37:09.120Z,43.20
2018-05-21T08:39:37.459Z,42.19
2018-05-21T08:42:06.613Z,43.30
2018-05-21T08:44:34.949Z,41.95
2018-05-21T08:47:04.947Z,42.04
2018-05-21T08:49:33.655Z,41.50
2018-05-21T08:52:02.014Z,41.80
2018-05-21T08:54:30.955Z,41.54
2018-05-21T08:56:59.540Z,40.80
2018-05-21T08:59:28.816Z,40.64
2018-05-21T09:01:57.158Z,41.12
2018-05-21T09:04:25.569Z,41.24
2018-05-21T09:06:53.886Z,40.43
2018-05-21T09:09:22.292Z,40.30
2018-05-21T09:11:51.369Z,40.05
2018-05-21T09:14:19.756Z,39.82
2018-05-21T09:16:48.076Z,38.38
2018-05-21T09:19:17.392Z,37.95
2018-05-21T09:21:45.742Z,37.63
2018-05-21T09:24:14.090Z,38.54
2018-05-21T09:26:42.472Z,36.83
2018-05-21T09:29:10.837Z,37.16
2018-05-21T09:31:39.582Z,37.61
2018-05-21T09:34:09.905Z,37.51
2018-05-21T09:36:38.233Z,37.37
2018-05-21T09:39:06.716Z,37.83
2018-05-21T09:41:35.062Z,37.59
2018-05-21T09:44:03.462Z,37.68
2018-05-21T09:46:33.023Z,36.68
2018-05-21T09:49:02.126Z,37.00
2018-05-21T09:51:31.367Z,36.44
2018-05-21T09:53:59.740Z,36.90
2018-05-21T09:56:28.693Z,36.00
2018-05-21T09:58:57.108Z,36.77
2018-05-21T10:01:25.651Z,36.56
2018-05-21T10:03:54.389Z,35.82
2018-05-21T10:06:22.727Z,35.53
2018-05-21T10:08:51.077Z,35.09
2018-05-21T10:11:19.417Z,33.88
2018-05-21T10:13:48.683Z,34.47
2018-05-21T10:16:18.133Z,32.68
2018-05-21T10:18:46.526Z,32.35
2018-05-21T10:21:15.781Z,30.67
2018-05-21T10:23:44.646Z,28.94
2018-05-21T10:26:13.805Z,27.78
2018-05-21T10:28:42.992Z,26.98
2018-05-21T10:31:11.556Z,26.77
2018-05-21T10:33:39.910Z,27.79
2018-05-21T10:36:08.252Z,26.95
2018-05-21T10:38:36.624Z,26.20
2018-05-21T10:41:06.382Z,25.91
2018-05-21T10:43:34.727Z,26.77
2018-05-21T10:46:03.074Z,26.13
2018-05-21T10:48:32.210Z,26.62
2018-05-21T10:51:01.080Z,26.12
2018-05-21T10:53:30.002Z,25.94
2018-05-21T10:55:58.443Z,25.15
2018-05-21T10:58:26.857Z,25.08
2018-05-21T11:00:55.188Z,24.34
2018-05-21T11:03:23.534Z,25.31
2018-05-21T11:05:51.870Z,25.37
2018-05-21T11:08:20.183Z,24.84
2018-05-21T11:10:48.530Z,24.29
2018-05-21T11:13:16.905Z,24.51
2018-05-21T11:15:45.995Z,24.34
2018-05-21T11:18:14.328Z,24.22
2018-05-21T11:20:42.680Z,25.42
2018-05-21T11:23:11.019Z,22.97
2018-05-21T11:25:39.513Z,24.38
2018-05-21T11:28:08.486Z,23.96
2018-05-21T11:30:39.381Z,23.01
2018-05-21T11:33:07.710Z,22.92
2018-05-21T11:35:36.144Z,23.37
2018-05-21T11:38:04.471Z,22.39
2018-05-21T11:40:32.876Z,22.82
2018-05-21T11:43:02.060Z,23.98
2018-05-21T11:45:30.459Z,25.69
2018-05-21T11:47:59.650Z,24.36
2018-05-21T11:50:29.831Z,24.23
2018-05-21T11:52:58.324Z,24.09
2018-05-21T11:55:28.080Z,25.50
2018-05-21T11:57:56.405Z,24.44
2018-05-21T12:00:24.813Z,24.80
2018-05-21T12:02:53.145Z,25.29
2018-05-21T12:05:21.821Z,25.09
2018-05-21T12:07:50.980Z,25.18
2018-05-21T12:10:21.301Z,25.30
2018-05-21T12:12:50.493Z,24.34
2018-05-21T12:15:18.875Z,25.84
2018-05-21T12:17:48.147Z,24.89
2018-05-21T12:20:16.497Z,24.60
2018-05-21T12:22:46.176Z,23.56
2018-05-21T12:25:14.526Z,24.64
2018-05-21T12:27:43.229Z,23.94
2018-05-21T12:30:11.581Z,23.53
2018-05-21T12:32:39.917Z,23.46
2018-05-21T12:35:09.896Z,23.13
2018-05-21T12:37:38.899Z,22.66
2018-05-21T12:40:07.300Z,22.37
2018-05-21T12:42:35.643Z,22.72
2018-05-21T12:45:04.017Z,22.85
2018-05-21T12:47:32.669Z,22.19
2018-05-21T12:50:03.212Z,21.72
2018-05-21T12:52:31.536Z,22.09
2018-05-21T12:55:01.304Z,22.17
2018-05-21T12:57:30.589Z,22.59
2018-05-21T12:59:59.770Z,21.90
2018-05-21T13:02:29.289Z,22.13
2018-05-21T13:04:58.040Z,22.42
2018-05-21T13:07:26.369Z,22.46
2018-05-21T13:09:56.738Z,23.45
2018-05-21T13:12:25.925Z,22.90
2018-05-21T13:14:55.163Z,22.98
2018-05-21T13:17:23.485Z,22.18
2018-05-21T13:19:51.837Z,23.85
2018-05-21T13:22:21.778Z,22.15
2018-05-21T13:24:50.185Z,22.73
2018-05-21T13:27:19.041Z,22.70
2018-05-21T13:29:47.879Z,22.30
2018-05-21T13:32:16.974Z,21.54
2018-05-21T13:34:45.736Z,21.11
2018-05-21T13:37:15.750Z,20.81
2018-05-21T13:39:44.920Z,20.52
2018-05-21T13:42:13.669Z,20.02
2018-05-21T13:44:42.012Z,21.26
2018-05-21T13:47:10.415Z,21.90
2018-05-21T13:49:38.769Z,22.22
2018-05-21T13:52:07.103Z,21.89
2018-05-21T13:54:35.707Z,22.27
2018-05-21T13:57:06.096Z,21.13
2018-05-21T13:59:34.497Z,21.44
2018-05-21T14:02:04.675Z,21.18
2018-05-21T14:04:33.544Z,21.44
2018-05-21T14:10:02.457Z,21.87
2018-05-21T14:12:31.593Z,22.36
2018-05-21T14:15:00.339Z,21.55
2018-05-21T14:17:29.621Z,20.98
2018-05-21T14:19:58.882Z,21.17
2018-05-21T14:22:28.066Z,22.01
2018-05-21T14:24:57.351Z,21.25
2018-05-21T14:27:25.687Z,21.11
2018-05-21T14:29:54.955Z,21.59
2018-05-21T14:32:23.575Z,22.82
2018-05-21T14:34:52.777Z,22.53
2018-05-21T14:37:21.143Z,22.09
2018-05-21T14:39:49.530Z,21.79
2018-05-21T14:42:18.910Z,22.76
2018-05-21T14:44:47.254Z,23.60
2018-05-21T14:47:15.921Z,22.25
2018-05-21T14:49:44.276Z,22.62
2018-05-21T14:52:12.989Z,21.95
2018-05-21T14:54:41.601Z,21.87
2018-05-21T14:57:11.735Z,22.07
2018-05-21T14:59:40.078Z,22.94
2018-05-21T15:02:09.185Z,22.40
2018-05-21T15:04:38.348Z,22.81
2018-05-21T15:07:06.671Z,23.14
2018-05-21T15:09:35.434Z,23.49
2018-05-21T15:12:04.668Z,23.29
2018-05-21T15:14:33.036Z,22.80
2018-05-21T15:17:01.387Z,22.11
2018-05-21T15:19:29.775Z,23.13
2018-05-21T15:21:59.083Z,21.52
2018-05-21T15:24:27.425Z,22.51
2018-05-21T15:26:55.770Z,21.87
2018-05-21T15:29:25.091Z,22.63
2018-05-21T15:31:53.839Z,21.35
2018-05-21T15:34:22.176Z,20.79
2018-05-21T15:36:50.539Z,20.81
2018-05-21T15:39:19.348Z,20.63
2018-05-21T15:41:47.702Z,20.92
2018-05-21T15:44:17.325Z,21.31
2018-05-21T15:46:45.699Z,21.88
2018-05-21T15:49:14.491Z,22.45
2018-05-21T15:51:44.665Z,22.68
2018-05-21T15:54:13.108Z,21.94
2018-05-21T15:56:41.461Z,22.19
2018-05-21T15:59:09.781Z,21.24
2018-05-21T16:01:38.125Z,20.73
2018-05-21T16:04:07.417Z,21.88
2018-05-21T16:06:36.343Z,21.82
2018-05-21T16:09:04.747Z,21.81
2018-05-21T16:11:33.383Z,21.82
2018-05-21T16:14:02.503Z,22.24
2018-05-21T16:16:30.873Z,22.71
2018-05-21T16:19:00.051Z,23.04
2018-05-21T16:21:28.401Z,22.82
2018-05-21T16:23:57.949Z,22.98
2018-05-21T16:26:27.296Z,22.40
2018-05-21T16:28:56.521Z,22.10
2018-05-21T16:31:25.310Z,22.36
2018-05-21T16:33:53.639Z,21.92
2018-05-21T16:36:22.823Z,22.03
2018-05-21T16:38:52.081Z,21.90
2018-05-21T16:41:20.459Z,21.48
2018-05-21T16:43:48.908Z,22.72
2018-05-21T16:46:17.320Z,22.40
2018-05-21T16:48:48.268Z,22.20
2018-05-21T16:51:17.617Z,22.50
2018-05-21T16:53:46.738Z,23.67
2018-05-21T16:56:17.793Z,23.80
2018-05-21T16:58:46.395Z,25.51
2018-05-21T17:01:15.612Z,26.20
2018-05-21T17:03:44.042Z,26.71
2018-05-21T17:06:14.025Z,28.29
2018-05-21T17:08:43.415Z,29.23
2018-05-21T17:11:12.510Z,30.39
2018-05-21T17:13:41.128Z,30.74
2018-05-21T17:16:10.647Z,29.94
2018-05-21T17:18:39.027Z,29.72
2018-05-21T17:21:07.420Z,30.15
2018-05-21T17:23:39.688Z,29.82
2018-05-21T17:26:08.041Z,29.98
2018-05-21T17:28:38.256Z,29.66
2018-05-21T17:31:07.796Z,29.38
2018-05-21T17:33:37.311Z,30.43
2018-05-21T17:36:10.305Z,30.86
2018-05-21T17:38:38.839Z,30.70
2018-05-21T17:41:08.110Z,31.09
2018-05-21T17:43:37.591Z,31.73
2018-05-21T17:46:05.973Z,32.01
2018-05-21T17:48:34.345Z,32.19
2018-05-21T17:51:03.342Z,31.71
2018-05-21T17:53:32.111Z,32.32
2018-05-21T17:56:01.709Z,32.67
2018-05-21T17:58:30.035Z,32.76
2018-05-21T18:00:58.693Z,32.56
2018-05-21T18:03:27.018Z,32.89
2018-05-21T18:05:55.640Z,33.24
2018-05-21T18:08:24.226Z,33.28
2018-05-21T18:10:53.947Z,33.77
2018-05-21T18:13:22.255Z,33.82
2018-05-21T18:15:50.652Z,33.92
2018-05-21T18:18:21.376Z,34.04
2018-05-21T18:20:50.151Z,34.31
2018-05-21T18:23:18.741Z,34.48
2018-05-21T18:25:47.075Z,34.36
2018-05-21T18:28:15.400Z,34.25
2018-05-21T18:30:44.771Z,34.55
2018-05-21T18:33:13.104Z,34.14
2018-05-21T18:35:41.491Z,34.28
2018-05-21T18:38:12.671Z,33.98
2018-05-21T18:40:41.051Z,34.38
2018-05-21T18:43:11.192Z,34.26
2018-05-21T18:45:39.559Z,34.93
2018-05-21T18:48:07.925Z,35.24
2018-05-21T18:50:37.849Z,35.20
2018-05-21T18:53:06.208Z,34.55
2018-05-21T18:55:34.563Z,35.50
2018-05-21T18:58:03.696Z,35.74
2018-05-21T19:00:32.758Z,35.96
2018-05-21T19:03:01.515Z,35.37
2018-05-21T19:05:29.869Z,35.68
2018-05-21T19:07:58.576Z,36.00
2018-05-21T19:10:27.952Z,36.04
2018-05-21T19:12:57.967Z,36.62
2018-05-21T19:15:26.348Z,35.83
2018-05-21T19:17:54.820Z,36.12
2018-05-21T19:20:24.315Z,36.06
2018-05-21T19:22:52.661Z,36.22
2018-05-21T19:25:21.023Z,35.88
2018-05-21T19:27:50.306Z,36.86
2018-05-21T19:30:19.301Z,36.89
2018-05-21T19:32:48.333Z,36.96
2018-05-21T19:35:17.050Z,36.64
2018-05-21T19:37:47.991Z,37.20
2018-05-21T19:40:16.727Z,37.19
2018-05-21T19:42:45.909Z,37.35
2018-05-21T19:45:16.109Z,37.38
2018-05-21T19:47:45.290Z,37.58
2018-05-21T19:50:13.975Z,37.80
2018-05-21T19:52:43.156Z,38.29
2018-05-21T19:55:11.872Z,38.20
2018-05-21T19:57:41.123Z,37.99
2018-05-21T20:00:11.422Z,38.49
2018-05-21T20:02:39.766Z,38.30
2018-05-21T20:05:09.825Z,37.94
2018-05-21T20:07:39.495Z,38.13
2018-05-21T20:10:08.551Z,38.36
2018-05-21T20:12:37.394Z,38.56
2018-05-21T20:15:06.028Z,38.91
2018-05-21T20:17:35.455Z,38.92
2018-05-21T20:20:05.301Z,39.31
2018-05-21T20:22:33.651Z,39.85
2018-05-21T20:25:02.025Z,39.96
2018-05-21T20:27:30.388Z,39.82
2018-05-21T20:29:59.778Z,40.00
2018-05-21T20:32:28.541Z,39.77
2018-05-21T20:34:56.911Z,39.96
2018-05-21T20:37:25.961Z,39.96
2018-05-21T20:39:54.308Z,40.25
2018-05-21T20:42:23.164Z,40.76
2018-05-21T20:44:52.421Z,40.79
2018-05-21T20:47:20.788Z,41.09
2018-05-21T20:49:49.146Z,41.37
2018-05-21T20:52:17.512Z,41.62
2018-05-21T20:54:47.552Z,41.32
2018-05-21T20:57:16.071Z,41.94
2018-05-21T20:59:44.421Z,41.88
2018-05-21T21:02:12.805Z,42.01
2018-05-21T21:04:41.149Z,42.78
2018-05-21T21:07:10.321Z,42.79
2018-05-21T21:09:39.609Z,42.84
2018-05-21T21:12:08.738Z,43.37
2018-05-21T21:14:37.077Z,43.44
2018-05-21T21:17:05.417Z,43.95
2018-05-21T21:19:33.768Z,44.01
2018-05-21T21:22:03.976Z,43.80
2018-05-21T21:24:33.561Z,43.87
2018-05-21T21:27:02.105Z,44.00
2018-05-21T21:29:30.510Z,43.96
2018-05-21T21:31:59.765Z,43.89
2018-05-21T21:34:28.508Z,43.93
2018-05-21T21:36:57.097Z,44.74
2018-05-21T21:39:26.222Z,44.70
2018-05-21T21:41:55.527Z,44.63
2018-05-21T21:44:23.933Z,44.62
2018-05-21T21:46:56.538Z,44.53
2018-05-21T21:49:25.375Z,44.84
2018-05-21T21:51:54.479Z,44.86
2018-05-21T21:54:23.453Z,45.31
2018-05-21T21:56:52.057Z,45.55
2018-05-21T21:59:21.204Z,45.20
2018-05-21T22:01:50.239Z,45.27
2018-05-21T22:04:18.677Z,44.94
2018-05-21T22:06:47.395Z,45.28
2018-05-21T22:09:16.501Z,45.48
2018-05-21T22:11:44.861Z,45.53
2018-05-21T22:14:13.236Z,45.58
2018-05-21T22:16:41.593Z,45.69
2018-05-21T22:19:09.915Z,45.51
2018-05-21T22:21:38.973Z,45.62
2018-05-21T22:24:09.076Z,45.65
2018-05-21T22:26:38.261Z,45.49
2018-05-21T22:29:07.641Z,45.66
2018-05-21T22:31:36.352Z,45.67
2018-05-21T22:34:04.664Z,45.80
2018-05-21T22:36:33.748Z,45.53
2018-05-21T22:39:02.899Z,45.57
2018-05-21T22:41:31.279Z,45.81
2018-05-21T22:44:00.898Z,45.58
2018-05-21T22:46:30.526Z,46.02
2018-05-21T22:48:58.863Z,45.93
2018-05-21T22:51:27.477Z,46.17
2018-05-21T22:53:55.824Z,45.88
2018-05-21T22:56:24.157Z,45.71
2018-05-21T22:58:53.661Z,46.30
2018-05-21T23:01:22.241Z,46.58
2018-05-21T23:03:50.623Z,46.60
2018-05-21T23:06:19.949Z,46.34
2018-05-21T23:08:48.820Z,46.57
2018-05-21T23:11:18.258Z,46.53
2018-05-21T23:13:46.746Z,46.69
2018-05-21T23:16:16.142Z,46.68
2018-05-21T23:18:44.876Z,46.79
2018-05-21T23:21:14.124Z,46.95
2018-05-21T23:23:42.468Z,47.34
2018-05-21T23:26:11.969Z,47.29
2018-05-21T23:28:40.342Z,47.30
2018-05-21T23:31:08.869Z,47.36
2018-05-21T23:33:38.138Z,47.70
2018-05-21T23:36:07.494Z,48.34
2018-05-21T23:38:37.438Z,48.90
2018-05-21T23:41:07.111Z,49.87
2018-05-21T23:43:35.458Z,49.44
2018-05-21T23:46:03.835Z,49.71
2018-05-21T23:48:33.087Z,49.31
2018-05-21T23:51:02.284Z,48.94
2018-05-21T23:53:30.633Z,49.05
2018-05-21T23:55:59.603Z,49.73
2018-05-21T23:58:27.964Z,49.61
